Time;durP1;ratioP1;P1;durP2;ratioP2;P2;SDS_P1;SDS_P2;PMS_P1;PMS_P2;Temp;Humidity;BMP_temperature;BMP_pressure;BME280_temperature;BME280_humidity;BME280_pressure;Samples;Min_cycle;Max_cycle;Signal;HPM_P1;HPM_P2
2022/10/14 00:00:42;;;;;;;25.88;16.20;;;;;;;;;;5011974;28;20060;-63
2022/10/14 00:03:08;;;;;;;26.58;17.40;;;;;;;;;;5012054;28;20050;-64
2022/10/14 00:05:39;;;;;;;27.98;17.55;;;;;;;;;;5013474;28;20050;-63
2022/10/14 00:08:05;;;;;;;23.73;17.65;;;;;;;;;;5012783;28;20562;-65
2022/10/14 00:10:36;;;;;;;34.10;17.52;;;;;;;;;;5012885;28;20050;-64
2022/10/14 00:13:02;;;;;;;27.67;17.52;;;;;;;;;;5010274;28;20077;-65
2022/10/14 00:15:29;;;;;;;29.02;18.58;;;;;;;;;;5013151;28;20046;-64
2022/10/14 00:17:56;;;;;;;31.45;17.45;;;;;;;;;;5011377;28;20497;-65
2022/10/14 00:20:22;;;;;;;34.13;18.48;;;;;;;;;;5012641;28;20104;-65
2022/10/14 00:22:49;;;;;;;24.33;16.98;;;;;;;;;;5012745;28;20068;-65
2022/10/14 00:25:16;;;;;;;27.30;17.55;;;;;;;;;;5012771;28;20111;-66
2022/10/14 00:27:42;;;;;;;24.63;16.67;;;;;;;;;;5012684;28;20584;-65
2022/10/14 00:30:09;;;;;;;28.95;17.42;;;;;;;;;;5011587;28;20100;-65
2022/10/14 00:32:36;;;;;;;26.30;17.52;;;;;;;;;;5012690;28;20493;-65
2022/10/14 00:35:03;;;;;;;28.45;17.17;;;;;;;;;;5011830;28;20196;-64
2022/10/14 00:37:29;;;;;;;27.90;17.13;;;;;;;;;;5012146;28;20084;-64
2022/10/14 00:39:56;;;;;;;28.00;16.88;;;;;;;;;;5012250;28;20497;-65
2022/10/14 00:42:22;;;;;;;24.15;17.50;;;;;;;;;;5012655;28;20473;-64
2022/10/14 00:44:49;;;;;;;29.25;17.50;;;;;;;;;;5012674;28;20100;-64
2022/10/14 00:47:16;;;;;;;29.30;17.65;;;;;;;;;;5012727;28;20077;-64
2022/10/14 00:49:42;;;;;;;25.65;17.00;;;;;;;;;;5010578;28;20136;-65
2022/10/14 00:52:27;;;;;;;28.58;18.63;;;;;;;;;;4995004;28;20049;-64
2022/10/14 00:54:57;;;;;;;30.10;18.40;;;;;;;;;;5011156;28;20049;-64
2022/10/14 00:57:24;;;;;;;27.45;17.33;;;;;;;;;;4995327;28;20057;-65
2022/10/14 00:59:52;;;;;;;25.13;16.80;;;;;;;;;;4994215;28;20104;-64
2022/10/14 01:02:19;;;;;;;24.70;16.77;;;;;;;;;;4994996;28;20050;-65
2022/10/14 01:04:46;;;;;;;26.80;17.45;;;;;;;;;;5012370;28;20049;-64
2022/10/14 01:07:20;;;;;;;23.35;15.70;;;;;;;;;;5011056;28;20061;-64
2022/10/14 01:10:32;;;;;;;26.00;17.25;;;;;;;;;;4994681;28;20053;-65
2022/10/14 01:13:21;;;;;;;27.15;16.67;;;;;;;;;;4989068;28;20601;-65
2022/10/14 01:15:48;;;;;;;26.85;16.23;;;;;;;;;;5010288;28;20042;-66
2022/10/14 01:18:34;;;;;;;25.70;16.88;;;;;;;;;;5015931;28;20058;-65
2022/10/14 01:21:21;;;;;;;30.20;16.48;;;;;;;;;;5013804;28;20049;-64
2022/10/14 01:23:50;;;;;;;29.02;16.17;;;;;;;;;;5013805;28;20077;-65
2022/10/14 01:26:26;;;;;;;31.42;17.67;;;;;;;;;;5014720;28;20050;-65
2022/10/14 01:29:30;;;;;;;25.27;16.65;;;;;;;;;;5014437;28;20100;-65
2022/10/14 01:32:01;;;;;;;22.48;16.35;;;;;;;;;;5012311;28;20045;-64
2022/10/14 01:34:32;;;;;;;25.30;15.73;;;;;;;;;;4994836;28;20046;-65
2022/10/14 01:37:02;;;;;;;26.30;15.13;;;;;;;;;;4994577;28;20508;-63
2022/10/14 01:39:31;;;;;;;24.58;16.20;;;;;;;;;;5010146;28;20049;-64
2022/10/14 01:42:04;;;;;;;20.52;15.35;;;;;;;;;;4994519;28;20042;-64
2022/10/14 01:44:31;;;;;;;28.45;15.40;;;;;;;;;;4999021;28;20471;-64
2022/10/14 01:46:58;;;;;;;23.92;15.10;;;;;;;;;;5014759;28;20473;-65
2022/10/14 01:49:34;;;;;;;24.05;15.45;;;;;;;;;;4998162;28;20104;-64
2022/10/14 01:52:06;;;;;;;22.05;14.57;;;;;;;;;;4998769;28;20055;-64
2022/10/14 01:54:34;;;;;;;19.85;14.85;;;;;;;;;;4998786;28;20136;-64
2022/10/14 01:57:02;;;;;;;23.45;14.90;;;;;;;;;;4998278;28;20054;-63
2022/10/14 01:59:29;;;;;;;19.15;15.90;;;;;;;;;;5014971;28;20053;-62
2022/10/14 02:01:56;;;;;;;22.08;15.18;;;;;;;;;;4997878;28;20042;-64
2022/10/14 02:04:22;;;;;;;20.08;15.35;;;;;;;;;;5015674;28;20233;-64
2022/10/14 02:07:05;;;;;;;22.80;15.98;;;;;;;;;;5015046;28;20103;-64
2022/10/14 02:09:53;;;;;;;22.83;15.73;;;;;;;;;;5014284;28;20416;-66
2022/10/14 02:12:34;;;;;;;22.50;15.23;;;;;;;;;;4999787;28;20046;-65
2022/10/14 02:15:12;;;;;;;21.65;15.07;;;;;;;;;;5014588;28;20584;-64
2022/10/14 02:17:50;;;;;;;19.85;15.02;;;;;;;;;;5014645;28;20440;-66
2022/10/14 02:20:26;;;;;;;20.27;15.23;;;;;;;;;;5014181;28;20103;-65
2022/10/14 02:23:18;;;;;;;22.75;14.52;;;;;;;;;;5016025;28;20053;-65
2022/10/14 02:25:45;;;;;;;16.73;13.20;;;;;;;;;;5014023;28;20049;-65
2022/10/14 02:28:17;;;;;;;18.38;14.15;;;;;;;;;;5013523;28;20112;-64
2022/10/14 02:30:47;;;;;;;16.15;12.82;;;;;;;;;;4981821;28;20145;-65
2022/10/14 02:33:14;;;;;;;14.15;12.65;;;;;;;;;;4998485;28;20050;-65
2022/10/14 02:35:41;;;;;;;16.05;12.52;;;;;;;;;;4997652;28;20046;-66
2022/10/14 02:38:07;;;;;;;14.18;11.20;;;;;;;;;;4997191;28;20096;-65
2022/10/14 02:40:42;;;;;;;19.23;12.30;;;;;;;;;;4997227;28;20468;-64
2022/10/14 02:43:10;;;;;;;15.35;10.93;;;;;;;;;;4997420;28;20073;-65
2022/10/14 02:45:40;;;;;;;15.50;9.82;;;;;;;;;;5013408;28;20054;-64
2022/10/14 02:48:08;;;;;;;12.88;10.07;;;;;;;;;;4997023;28;20049;-66
2022/10/14 02:50:35;;;;;;;12.85;10.77;;;;;;;;;;4997447;28;20049;-65
2022/10/14 02:53:01;;;;;;;13.13;8.77;;;;;;;;;;4997344;28;20073;-66
2022/10/14 02:55:28;;;;;;;11.52;8.20;;;;;;;;;;5012946;28;20092;-66
2022/10/14 02:57:54;;;;;;;12.68;9.35;;;;;;;;;;5012802;28;20093;-64
2022/10/14 03:00:21;;;;;;;12.38;9.40;;;;;;;;;;5014154;28;20108;-66
2022/10/14 03:02:48;;;;;;;11.07;8.23;;;;;;;;;;5013261;28;20055;-66
2022/10/14 03:05:14;;;;;;;15.98;9.45;;;;;;;;;;5014522;28;20050;-65
2022/10/14 03:07:41;;;;;;;13.50;8.32;;;;;;;;;;5014517;28;20127;-65
2022/10/14 03:10:08;;;;;;;11.30;8.80;;;;;;;;;;5013643;28;20054;-67
2022/10/14 03:12:34;;;;;;;14.02;7.65;;;;;;;;;;5014017;28;20077;-64
2022/10/14 03:15:01;;;;;;;10.07;7.53;;;;;;;;;;5014425;28;20050;-65
2022/10/14 03:17:28;;;;;;;9.88;8.13;;;;;;;;;;5014073;28;20463;-65
2022/10/14 03:19:54;;;;;;;15.35;7.68;;;;;;;;;;5012113;28;20049;-65
2022/10/14 03:22:21;;;;;;;14.90;8.27;;;;;;;;;;5014107;28;20050;-65
2022/10/14 03:24:48;;;;;;;9.77;7.78;;;;;;;;;;5013947;28;20104;-65
2022/10/14 03:27:15;;;;;;;10.38;7.88;;;;;;;;;;5013758;28;20077;-64
2022/10/14 03:29:41;;;;;;;10.30;7.45;;;;;;;;;;5035401;22;20050;-63
2022/10/14 03:32:08;;;;;;;12.45;8.02;;;;;;;;;;5014243;28;20107;-64
2022/10/14 03:34:35;;;;;;;14.05;8.02;;;;;;;;;;5014222;28;20049;-63
2022/10/14 03:37:01;;;;;;;13.80;8.20;;;;;;;;;;5014161;28;20088;-63
2022/10/14 03:39:28;;;;;;;12.55;8.30;;;;;;;;;;5013394;28;20096;-63
2022/10/14 03:41:54;;;;;;;16.40;8.95;;;;;;;;;;5013751;28;20041;-63
2022/10/14 03:44:21;;;;;;;11.05;7.85;;;;;;;;;;5014164;28;20479;-64
2022/10/14 03:46:48;;;;;;;14.23;9.32;;;;;;;;;;5013837;28;20501;-64
2022/10/14 03:49:14;;;;;;;12.07;9.15;;;;;;;;;;5013012;28;20097;-64
2022/10/14 03:51:41;;;;;;;13.50;8.90;;;;;;;;;;5013597;28;20053;-64
2022/10/14 03:54:08;;;;;;;12.90;8.73;;;;;;;;;;5013731;28;20046;-64
2022/10/14 03:56:34;;;;;;;14.93;10.27;;;;;;;;;;5013455;28;20045;-64
2022/10/14 03:59:01;;;;;;;14.30;9.63;;;;;;;;;;5013122;28;20050;-64
2022/10/14 04:01:27;;;;;;;18.15;10.95;;;;;;;;;;5013675;28;20057;-64
2022/10/14 04:03:54;;;;;;;19.63;11.93;;;;;;;;;;5013376;28;20492;-64
2022/10/14 04:06:21;;;;;;;18.15;12.25;;;;;;;;;;5012750;28;20100;-64
2022/10/14 04:08:47;;;;;;;18.48;12.40;;;;;;;;;;5012511;28;20505;-64
2022/10/14 04:11:15;;;;;;;14.13;10.98;;;;;;;;;;5013323;28;20050;-64
2022/10/14 04:13:42;;;;;;;14.25;11.25;;;;;;;;;;5013448;28;20073;-64
2022/10/14 04:16:11;;;;;;;18.52;12.45;;;;;;;;;;5013247;28;20054;-64
2022/10/14 04:18:37;;;;;;;19.23;11.50;;;;;;;;;;5012631;28;20053;-64
2022/10/14 04:21:07;;;;;;;20.73;12.70;;;;;;;;;;5013366;28;20104;-64
2022/10/14 04:23:34;;;;;;;20.27;12.30;;;;;;;;;;5012840;28;20073;-64
2022/10/14 04:26:05;;;;;;;17.92;12.30;;;;;;;;;;5012187;28;20077;-64
2022/10/14 04:28:32;;;;;;;23.42;13.60;;;;;;;;;;5012648;28;20092;-64
2022/10/14 04:30:58;;;;;;;18.75;11.93;;;;;;;;;;5013043;28;20081;-64
2022/10/14 04:33:25;;;;;;;19.92;12.73;;;;;;;;;;5012949;28;20104;-64
2022/10/14 04:35:59;;;;;;;21.00;12.73;;;;;;;;;;5012775;28;20084;-64
2022/10/14 04:38:26;;;;;;;20.80;12.98;;;;;;;;;;5012233;28;20550;-64
2022/10/14 04:40:52;;;;;;;18.80;12.98;;;;;;;;;;5012642;28;20512;-64
2022/10/14 04:43:19;;;;;;;23.88;12.50;;;;;;;;;;5012857;28;20046;-64
2022/10/14 04:45:46;;;;;;;20.75;12.30;;;;;;;;;;5013140;28;20050;-64
2022/10/14 04:48:13;;;;;;;19.27;11.77;;;;;;;;;;5012483;28;20467;-64
2022/10/14 04:50:40;;;;;;;26.25;12.18;;;;;;;;;;5012461;28;20050;-64
2022/10/14 04:53:07;;;;;;;20.85;11.98;;;;;;;;;;5013021;28;20104;-64
2022/10/14 04:55:39;;;;;;;21.07;11.73;;;;;;;;;;5012903;28;20420;-64
2022/10/14 04:58:05;;;;;;;17.83;11.43;;;;;;;;;;5012286;28;20324;-64
2022/10/14 05:00:32;;;;;;;20.30;13.05;;;;;;;;;;5012519;28;20116;-64
2022/10/14 05:02:58;;;;;;;27.45;13.32;;;;;;;;;;5012310;28;20508;-64
2022/10/14 05:05:25;;;;;;;26.05;12.48;;;;;;;;;;5012696;28;20050;-64
2022/10/14 05:07:52;;;;;;;24.88;13.43;;;;;;;;;;5011910;28;20574;-64
2022/10/14 05:10:19;;;;;;;23.20;14.10;;;;;;;;;;5012293;28;20104;-64
2022/10/14 05:12:45;;;;;;;17.45;12.05;;;;;;;;;;5012549;28;20049;-64
2022/10/14 05:15:12;;;;;;;21.50;13.05;;;;;;;;;;5012323;28;20081;-64
2022/10/14 05:17:39;;;;;;;16.45;12.27;;;;;;;;;;5012242;28;20057;-64
2022/10/14 05:20:06;;;;;;;19.20;12.02;;;;;;;;;;5010245;28;20061;-64
2022/10/14 05:22:32;;;;;;;19.52;11.93;;;;;;;;;;5011001;28;20103;-63
2022/10/14 05:24:59;;;;;;;19.15;11.07;;;;;;;;;;5012201;28;20061;-63
2022/10/14 05:27:26;;;;;;;18.70;11.00;;;;;;;;;;5012245;28;20100;-63
2022/10/14 05:29:52;;;;;;;18.35;11.25;;;;;;;;;;5011196;28;20085;-64
2022/10/14 05:32:19;;;;;;;14.90;10.27;;;;;;;;;;5011895;28;20050;-64
2022/10/14 05:34:46;;;;;;;16.35;10.40;;;;;;;;;;5012296;28;20492;-63
2022/10/14 05:37:13;;;;;;;14.05;10.48;;;;;;;;;;5012194;28;20050;-63
2022/10/14 05:39:39;;;;;;;14.57;10.45;;;;;;;;;;5011565;28;20485;-64
2022/10/14 05:42:06;;;;;;;14.18;10.00;;;;;;;;;;5012899;28;20457;-64
2022/10/14 05:44:32;;;;;;;17.38;9.32;;;;;;;;;;5012678;28;20561;-64
2022/10/14 05:46:59;;;;;;;15.60;9.68;;;;;;;;;;5012074;28;20448;-64
2022/10/14 05:49:26;;;;;;;14.25;10.63;;;;;;;;;;5011273;28;20046;-63
2022/10/14 05:51:52;;;;;;;14.40;9.23;;;;;;;;;;5011991;28;20177;-63
2022/10/14 05:54:19;;;;;;;12.98;8.57;;;;;;;;;;5011784;28;20096;-63
2022/10/14 05:56:46;;;;;;;16.45;9.30;;;;;;;;;;5011789;28;20119;-63
2022/10/14 05:59:12;;;;;;;14.10;10.25;;;;;;;;;;5011051;28;20108;-63
2022/10/14 06:01:39;;;;;;;16.20;9.07;;;;;;;;;;5011981;28;20077;-63
2022/10/14 06:04:06;;;;;;;14.63;9.38;;;;;;;;;;5012195;28;20119;-63
2022/10/14 06:06:33;;;;;;;17.30;9.38;;;;;;;;;;5011693;28;20504;-63
2022/10/14 06:09:00;;;;;;;16.05;9.77;;;;;;;;;;5011315;28;20090;-64
2022/10/14 06:11:27;;;;;;;14.95;9.68;;;;;;;;;;5011648;28;20092;-63
2022/10/14 06:13:53;;;;;;;16.27;10.15;;;;;;;;;;5010519;28;20058;-63
2022/10/14 06:16:20;;;;;;;15.85;9.68;;;;;;;;;;5010528;28;20104;-63
2022/10/14 06:18:46;;;;;;;12.95;9.60;;;;;;;;;;5011021;28;20096;-63
2022/10/14 06:21:19;;;;;;;17.33;10.25;;;;;;;;;;5011830;28;20050;-64
2022/10/14 06:23:46;;;;;;;12.65;9.90;;;;;;;;;;5011681;28;20046;-64
2022/10/14 06:26:12;;;;;;;17.02;10.57;;;;;;;;;;5011477;28;20504;-64
2022/10/14 06:28:39;;;;;;;19.70;10.60;;;;;;;;;;5011568;28;20127;-64
2022/10/14 06:31:06;;;;;;;15.98;10.07;;;;;;;;;;5015139;28;20394;-64
2022/10/14 06:33:33;;;;;;;16.23;10.38;;;;;;;;;;5015084;28;20050;-64
2022/10/14 06:36:04;;;;;;;12.48;9.95;;;;;;;;;;5015624;28;20049;-64
2022/10/14 06:38:31;;;;;;;18.50;10.55;;;;;;;;;;5014297;28;20049;-64
2022/10/14 06:40:58;;;;;;;15.32;10.20;;;;;;;;;;5014817;28;20073;-64
2022/10/14 06:43:24;;;;;;;15.43;11.00;;;;;;;;;;5014796;28;20104;-64
2022/10/14 06:45:51;;;;;;;14.30;11.02;;;;;;;;;;5014987;28;20053;-64
2022/10/14 06:48:18;;;;;;;17.55;11.75;;;;;;;;;;5014540;28;20058;-64
2022/10/14 06:50:44;;;;;;;19.23;12.15;;;;;;;;;;5014645;28;20084;-64
2022/10/14 06:53:11;;;;;;;20.55;12.75;;;;;;;;;;5013505;28;20046;-64
2022/10/14 06:55:38;;;;;;;22.60;14.27;;;;;;;;;;5013456;28;20416;-64
2022/10/14 06:58:04;;;;;;;16.77;12.38;;;;;;;;;;5014162;28;20050;-64
2022/10/14 07:00:31;;;;;;;21.98;12.23;;;;;;;;;;5014661;28;20057;-64
2022/10/14 07:02:58;;;;;;;16.00;11.80;;;;;;;;;;5014409;28;20046;-64
2022/10/14 07:05:25;;;;;;;17.30;12.25;;;;;;;;;;5014550;28;20053;-64
2022/10/14 07:07:52;;;;;;;15.50;11.48;;;;;;;;;;5014343;28;20099;-64
2022/10/14 07:10:18;;;;;;;17.15;12.48;;;;;;;;;;5014176;28;20054;-64
2022/10/14 07:12:45;;;;;;;20.40;12.82;;;;;;;;;;5014574;28;20049;-64
2022/10/14 07:15:12;;;;;;;15.88;11.45;;;;;;;;;;5014317;28;20405;-64
2022/10/14 07:17:38;;;;;;;17.83;11.02;;;;;;;;;;5014493;28;20049;-64
2022/10/14 07:20:06;;;;;;;17.42;11.80;;;;;;;;;;5013682;28;20480;-64
2022/10/14 07:22:35;;;;;;;17.92;11.50;;;;;;;;;;5012874;28;20085;-64
2022/10/14 07:25:05;;;;;;;18.33;11.87;;;;;;;;;;5014428;28;20490;-64
2022/10/14 07:27:32;;;;;;;15.90;10.98;;;;;;;;;;5014425;28;20054;-64
2022/10/14 07:30:00;;;;;;;16.27;10.32;;;;;;;;;;5013726;28;20058;-64
2022/10/14 07:32:27;;;;;;;15.57;10.13;;;;;;;;;;5013116;28;20046;-64
2022/10/14 07:34:53;;;;;;;15.05;11.13;;;;;;;;;;5013869;28;20058;-64
2022/10/14 07:37:20;;;;;;;14.20;11.10;;;;;;;;;;5013773;28;20548;-64
2022/10/14 07:39:47;;;;;;;17.33;10.63;;;;;;;;;;5012459;28;20523;-64
2022/10/14 07:42:13;;;;;;;17.42;11.35;;;;;;;;;;5013374;28;20104;-64
2022/10/14 07:44:40;;;;;;;14.35;10.55;;;;;;;;;;5014042;28;20053;-64
2022/10/14 07:47:07;;;;;;;14.98;10.93;;;;;;;;;;5013865;28;20050;-64
2022/10/14 07:49:34;;;;;;;13.60;10.35;;;;;;;;;;5012872;28;20096;-64
2022/10/14 07:52:01;;;;;;;17.08;10.13;;;;;;;;;;5013598;28;20116;-64
2022/10/14 07:54:29;;;;;;;13.95;10.85;;;;;;;;;;5013794;28;20069;-64
2022/10/14 07:56:56;;;;;;;15.55;10.70;;;;;;;;;;5013651;28;20531;-64
2022/10/14 07:59:24;;;;;;;11.25;10.05;;;;;;;;;;5012955;28;20049;-64
2022/10/14 08:01:51;;;;;;;11.23;9.40;;;;;;;;;;5013528;28;20057;-64
2022/10/14 08:04:18;;;;;;;9.40;8.40;;;;;;;;;;5013285;28;20511;-63
2022/10/14 08:06:49;;;;;;;12.80;8.98;;;;;;;;;;5013274;28;20054;-64
2022/10/14 08:09:17;;;;;;;14.98;9.07;;;;;;;;;;5012934;28;20069;-63
2022/10/14 08:11:44;;;;;;;10.18;9.05;;;;;;;;;;5013544;28;20050;-64
2022/10/14 08:14:12;;;;;;;13.02;9.98;;;;;;;;;;5013600;28;20099;-63
2022/10/14 08:16:38;;;;;;;10.52;9.43;;;;;;;;;;5013151;28;20528;-63
2022/10/14 08:19:07;;;;;;;13.60;10.60;;;;;;;;;;5012557;28;20493;-63
2022/10/14 08:21:41;;;;;;;13.93;10.57;;;;;;;;;;5013089;28;20049;-63
2022/10/14 08:24:08;;;;;;;12.95;9.65;;;;;;;;;;5013228;28;20133;-64
2022/10/14 08:26:39;;;;;;;12.90;10.43;;;;;;;;;;5013062;28;20468;-64
2022/10/14 08:29:09;;;;;;;15.65;8.98;;;;;;;;;;5010890;28;20497;-64
2022/10/14 08:31:36;;;;;;;12.13;8.77;;;;;;;;;;5011823;28;20050;-64
2022/10/14 08:34:03;;;;;;;10.50;7.30;;;;;;;;;;5012957;28;20053;-64
2022/10/14 08:36:30;;;;;;;6.85;6.05;;;;;;;;;;5012962;28;20046;-64
2022/10/14 08:38:56;;;;;;;6.22;5.55;;;;;;;;;;5012009;28;20049;-64
2022/10/14 08:41:50;;;;;;;10.70;5.53;;;;;;;;;;5012608;28;20089;-64
2022/10/14 08:44:48;;;;;;;9.07;4.15;;;;;;;;;;5011658;28;20103;-63
2022/10/14 08:47:16;;;;;;;7.43;4.85;;;;;;;;;;5011682;28;20456;-64
2022/10/14 08:49:45;;;;;;;11.15;5.00;;;;;;;;;;4994760;28;20054;-63
2022/10/14 08:52:29;;;;;;;6.40;4.82;;;;;;;;;;5012094;28;20053;-63
2022/10/14 08:55:31;;;;;;;7.57;4.60;;;;;;;;;;5011541;28;20196;-63
2022/10/14 08:58:19;;;;;;;5.85;4.53;;;;;;;;;;5010575;28;20547;-63
2022/10/14 09:00:48;;;;;;;8.77;5.13;;;;;;;;;;4995866;28;20137;-64
2022/10/14 09:03:22;;;;;;;7.20;5.13;;;;;;;;;;5012492;28;20092;-63
2022/10/14 09:05:56;;;;;;;8.90;4.40;;;;;;;;;;5011330;28;20050;-63
2022/10/14 09:08:29;;;;;;;6.28;4.60;;;;;;;;;;5010726;28;20053;-64
2022/10/14 09:10:56;;;;;;;9.70;5.28;;;;;;;;;;4995393;28;20050;-63
2022/10/14 09:13:38;;;;;;;11.02;5.45;;;;;;;;;;4994813;28;20516;-64
2022/10/14 09:16:13;;;;;;;11.23;4.80;;;;;;;;;;5012429;28;20474;-64
2022/10/14 09:18:43;;;;;;;7.07;4.43;;;;;;;;;;5010689;28;20136;-64
2022/10/14 09:21:29;;;;;;;7.22;5.15;;;;;;;;;;5010940;28;20108;-64
2022/10/14 09:24:24;;;;;;;7.85;4.55;;;;;;;;;;5011206;28;20479;-63
2022/10/14 09:27:07;;;;;;;4.75;4.25;;;;;;;;;;5011142;28;20050;-64
2022/10/14 09:29:49;;;;;;;7.40;4.63;;;;;;;;;;5032816;22;20069;-66
2022/10/14 09:32:36;;;;;;;7.72;4.78;;;;;;;;;;5011858;28;20060;-67
2022/10/14 09:35:03;;;;;;;5.93;4.60;;;;;;;;;;5010905;28;20073;-66
2022/10/14 09:37:33;;;;;;;5.95;4.72;;;;;;;;;;5026916;28;20104;-65
2022/10/14 09:40:09;;;;;;;6.88;4.45;;;;;;;;;;5011006;28;20108;-66
2022/10/14 09:42:56;;;;;;;6.35;4.30;;;;;;;;;;5011931;28;20424;-66
2022/10/14 09:45:24;;;;;;;6.60;4.32;;;;;;;;;;5010594;28;20078;-65
2022/10/14 09:48:06;;;;;;;9.65;4.25;;;;;;;;;;4993830;28;20077;-65
2022/10/14 09:50:42;;;;;;;7.15;4.50;;;;;;;;;;4994953;28;20091;-65
2022/10/14 09:53:18;;;;;;;6.57;4.20;;;;;;;;;;4994433;28;20086;-66
2022/10/14 09:55:51;;;;;;;7.85;4.85;;;;;;;;;;5013032;28;20050;-66
2022/10/14 09:58:20;;;;;;;5.95;4.40;;;;;;;;;;5011107;28;20053;-66
2022/10/14 10:00:47;;;;;;;8.43;4.57;;;;;;;;;;4993957;28;20512;-66
2022/10/14 10:03:25;;;;;;;5.45;4.10;;;;;;;;;;4994307;28;20103;-67
2022/10/14 10:06:09;;;;;;;10.13;4.65;;;;;;;;;;5015383;28;20085;-67
2022/10/14 10:08:40;;;;;;;5.72;4.32;;;;;;;;;;5014989;28;20471;-66
2022/10/14 10:11:12;;;;;;;6.03;4.47;;;;;;;;;;5015109;28;20063;-66
2022/10/14 10:13:43;;;;;;;6.95;4.65;;;;;;;;;;5014595;28;20050;-65
2022/10/14 10:16:24;;;;;;;7.50;4.03;;;;;;;;;;5014201;28;20141;-65
2022/10/14 10:18:52;;;;;;;4.95;4.25;;;;;;;;;;5014861;28;20108;-64
2022/10/14 10:21:29;;;;;;;6.38;4.47;;;;;;;;;;5014954;28;20057;-64
2022/10/14 10:23:58;;;;;;;6.85;4.50;;;;;;;;;;5015138;28;20053;-65
2022/10/14 10:26:30;;;;;;;7.15;4.38;;;;;;;;;;5015535;28;20193;-67
2022/10/14 10:28:57;;;;;;;6.25;4.18;;;;;;;;;;5014370;28;20057;-66
2022/10/14 10:31:51;;;;;;;5.10;3.85;;;;;;;;;;5014837;28;20137;-64
2022/10/14 10:34:31;;;;;;;5.32;4.45;;;;;;;;;;5013612;28;20512;-66
2022/10/14 10:37:03;;;;;;;5.88;3.70;;;;;;;;;;5013722;28;20428;-66
2022/10/14 10:40:01;;;;;;;7.97;4.28;;;;;;;;;;4997373;28;20060;-65
2022/10/14 10:42:33;;;;;;;4.88;3.80;;;;;;;;;;5014823;28;20103;-65
2022/10/14 10:45:05;;;;;;;5.57;3.53;;;;;;;;;;5013397;28;20054;-64
2022/10/14 10:48:07;;;;;;;6.18;3.22;;;;;;;;;;4997793;28;20053;-65
2022/10/14 10:50:46;;;;;;;6.00;3.47;;;;;;;;;;5002679;28;20053;-65
2022/10/14 10:53:22;;;;;;;7.20;3.40;;;;;;;;;;5013384;28;20053;-65
2022/10/14 10:56:12;;;;;;;6.15;3.65;;;;;;;;;;5013721;28;20096;-65
2022/10/14 10:58:40;;;;;;;5.85;3.22;;;;;;;;;;5012881;28;20053;-65
2022/10/14 11:01:25;;;;;;;4.15;3.63;;;;;;;;;;5014332;28;20129;-65
2022/10/14 11:04:14;;;;;;;6.18;3.95;;;;;;;;;;5013316;28;20050;-64
2022/10/14 11:12:58;;;;;;;8.65;3.60;;;;;;;;;;5013542;28;20046;-66
2022/10/14 11:16:03;;;;;;;7.50;4.40;;;;;;;;;;5012733;28;20464;-64
2022/10/14 11:18:33;;;;;;;8.43;4.60;;;;;;;;;;5013306;28;20049;-67
2022/10/14 11:21:05;;;;;;;5.60;3.80;;;;;;;;;;5012997;28;20131;-64
2022/10/14 11:23:35;;;;;;;;;;;;;;;;;;5013405;28;20488;-64
2022/10/14 11:26:27;;;;;;;5.25;4.15;;;;;;;;;;5013953;28;20347;-65
2022/10/14 11:29:17;;;;;;;6.67;3.97;;;;;;;;;;5012300;28;20054;-65
2022/10/14 11:31:50;;;;;;;7.07;4.20;;;;;;;;;;5013941;28;20085;-65
2022/10/14 11:34:30;;;;;;;6.07;4.25;;;;;;;;;;5012892;28;20073;-64
2022/10/14 11:37:06;;;;;;;5.60;4.13;;;;;;;;;;5013760;28;20049;-65
2022/10/14 11:39:48;;;;;;;6.82;4.50;;;;;;;;;;5012138;28;20085;-64
2022/10/14 11:42:30;;;;;;;8.65;4.53;;;;;;;;;;5013819;28;20058;-64
2022/10/14 11:45:15;;;;;;;5.93;4.30;;;;;;;;;;5013712;28;20046;-64
2022/10/14 11:47:47;;;;;;;7.15;5.00;;;;;;;;;;5013267;28;20132;-64
2022/10/14 11:50:21;;;;;;;8.35;4.95;;;;;;;;;;4996291;28;20045;-64
2022/10/14 11:53:03;;;;;;;7.05;4.57;;;;;;;;;;4997096;28;20057;-64
2022/10/14 11:55:37;;;;;;;6.75;4.60;;;;;;;;;;5012180;28;20081;-64
2022/10/14 11:58:05;;;;;;;8.88;4.72;;;;;;;;;;4996054;28;20077;-65
2022/10/14 12:00:32;;;;;;;6.95;4.70;;;;;;;;;;5013332;28;20054;-64
2022/10/14 12:03:20;;;;;;;7.03;5.03;;;;;;;;;;5013268;28;20501;-66
2022/10/14 12:06:03;;;;;;;9.57;5.22;;;;;;;;;;5013279;28;20092;-66
2022/10/14 12:08:35;;;;;;;8.57;5.15;;;;;;;;;;5013085;28;20057;-64
2022/10/14 12:11:10;;;;;;;9.95;5.60;;;;;;;;;;5013384;28;20046;-65
2022/10/14 12:13:47;;;;;;;8.07;5.13;;;;;;;;;;4994347;28;20100;-64
2022/10/14 12:16:19;;;;;;;9.07;4.55;;;;;;;;;;4996017;28;20050;-64
2022/10/14 12:18:48;;;;;;;9.52;4.30;;;;;;;;;;4995509;28;20049;-64
2022/10/14 12:21:26;;;;;;;5.82;3.88;;;;;;;;;;5012932;28;20092;-64
2022/10/14 12:24:13;;;;;;;4.30;3.20;;;;;;;;;;5011717;28;20053;-65
2022/10/14 12:27:03;;;;;;;9.23;3.20;;;;;;;;;;5012262;28;20112;-65
2022/10/14 12:29:31;;;;;;;6.45;2.70;;;;;;;;;;4996030;28;20120;-65
2022/10/14 12:32:24;;;;;;;5.70;2.65;;;;;;;;;;4995773;28;20053;-65
2022/10/14 12:34:52;;;;;;;;;;;;;;;;;;5013297;28;20489;-66
2022/10/14 12:37:28;;;;;;;4.60;2.40;;;;;;;;;;5012699;28;19921;-65
2022/10/14 12:40:06;;;;;;;4.38;3.00;;;;;;;;;;5012027;28;20064;-66
2022/10/14 12:42:35;;;;;;;3.00;2.58;;;;;;;;;;5012612;28;20053;-66
2022/10/14 12:45:21;;;;;;;4.80;2.60;;;;;;;;;;5012634;28;20096;-65
2022/10/14 12:48:12;;;;;;;6.68;2.30;;;;;;;;;;4996096;28;20535;-68
2022/10/14 12:50:39;;;;;;;3.65;2.25;;;;;;;;;;5011223;28;20077;-66
2022/10/14 12:53:14;;;;;;;3.72;2.10;;;;;;;;;;4995210;28;20555;-66
2022/10/14 12:55:55;;;;;;;3.72;1.73;;;;;;;;;;5011361;28;20077;-66
2022/10/14 12:58:41;;;;;;;4.30;2.20;;;;;;;;;;5010921;28;20124;-64
2022/10/14 13:01:20;;;;;;;4.25;1.77;;;;;;;;;;5011288;28;20468;-67
2022/10/14 13:03:59;;;;;;;4.00;1.90;;;;;;;;;;5011514;28;20054;-66
2022/10/14 13:06:39;;;;;;;4.65;1.83;;;;;;;;;;5011072;28;20054;-66
2022/10/14 13:09:11;;;;;;;5.95;1.77;;;;;;;;;;5010483;28;20089;-66
2022/10/14 13:11:40;;;;;;;3.42;2.15;;;;;;;;;;5012456;28;20073;-66
2022/10/14 13:14:26;;;;;;;6.95;2.88;;;;;;;;;;4994259;28;20046;-66
2022/10/14 13:16:56;;;;;;;2.55;1.95;;;;;;;;;;5012273;28;20115;-66
2022/10/14 13:19:43;;;;;;;2.75;2.05;;;;;;;;;;5011556;28;20546;-67
2022/10/14 13:22:15;;;;;;;1.55;1.35;;;;;;;;;;5011413;28;20054;-66
2022/10/14 13:24:42;;;;;;;3.80;2.40;;;;;;;;;;5012104;28;20049;-65
2022/10/14 13:27:11;;;;;;;3.30;2.60;;;;;;;;;;5010847;28;20428;-66
2022/10/14 13:29:59;;;;;;;3.25;1.65;;;;;;;;;;5011429;28;20053;-65
2022/10/14 13:32:47;;;;;;;2.38;1.77;;;;;;;;;;5012164;28;20420;-66
2022/10/14 13:35:29;;;;;;;3.13;1.73;;;;;;;;;;5011018;28;20481;-66
2022/10/14 13:38:10;;;;;;;4.78;1.95;;;;;;;;;;5011772;28;20050;-65
2022/10/14 13:40:53;;;;;;;3.55;1.30;;;;;;;;;;5014912;28;20120;-65
2022/10/14 13:43:25;;;;;;;2.72;1.70;;;;;;;;;;5014945;28;20119;-64
2022/10/14 13:46:05;;;;;;;2.45;1.38;;;;;;;;;;5014712;28;20046;-65
2022/10/14 13:48:39;;;;;;;2.85;1.48;;;;;;;;;;4999778;28;20050;-65
2022/10/14 13:51:15;;;;;;;3.42;1.73;;;;;;;;;;5015149;28;20053;-65
2022/10/14 13:54:15;;;;;;;6.13;1.50;;;;;;;;;;5014988;28;20719;-64
2022/10/14 13:56:42;;;;;;;2.00;1.30;;;;;;;;;;5016033;28;20084;-65
2022/10/14 13:59:21;;;;;;;2.40;1.60;;;;;;;;;;5014095;28;20053;-66
2022/10/14 14:02:14;;;;;;;1.92;1.42;;;;;;;;;;5015157;28;20140;-66
2022/10/14 14:04:50;;;;;;;1.92;1.40;;;;;;;;;;5014287;28;20083;-65
2022/10/14 14:07:20;;;;;;;5.07;1.65;;;;;;;;;;4999614;28;20054;-66
2022/10/14 14:10:07;;;;;;;1.58;1.10;;;;;;;;;;5014860;28;20049;-66
2022/10/14 14:12:34;;;;;;;1.27;1.10;;;;;;;;;;5014198;28;20050;-66
2022/10/14 14:15:00;;;;;;;3.88;2.97;;;;;;;;;;5014310;28;20073;-65
2022/10/14 14:17:30;;;;;;;2.95;1.42;;;;;;;;;;5015301;28;20108;-66
2022/10/14 14:19:57;;;;;;;3.65;1.30;;;;;;;;;;5013649;28;20287;-66
2022/10/14 14:22:26;;;;;;;2.58;1.30;;;;;;;;;;5015244;28;20489;-66
2022/10/14 14:25:11;;;;;;;2.95;1.10;;;;;;;;;;5015368;28;20069;-65
2022/10/14 14:28:02;;;;;;;1.92;1.70;;;;;;;;;;5014765;28;20086;-65
2022/10/14 14:30:37;;;;;;;2.40;1.70;;;;;;;;;;5015071;28;20050;-64
2022/10/14 14:33:08;;;;;;;2.22;1.58;;;;;;;;;;4998111;28;20370;-64
2022/10/14 14:35:35;;;;;;;1.98;1.48;;;;;;;;;;5013786;28;20460;-64
2022/10/14 14:38:02;;;;;;;2.28;1.30;;;;;;;;;;5014512;28;20585;-64
2022/10/14 14:40:29;;;;;;;1.20;1.10;;;;;;;;;;5014981;28;20103;-65
2022/10/14 14:43:01;;;;;;;2.08;1.27;;;;;;;;;;5015140;28;20050;-64
2022/10/14 14:45:41;;;;;;;2.30;1.40;;;;;;;;;;5013877;28;20169;-65
2022/10/14 14:48:09;;;;;;;1.88;1.50;;;;;;;;;;4997164;28;20049;-65
2022/10/14 14:50:42;;;;;;;2.22;1.45;;;;;;;;;;4996407;28;20096;-65
2022/10/14 14:53:19;;;;;;;3.28;1.65;;;;;;;;;;4998232;28;20104;-67
2022/10/14 14:55:52;;;;;;;2.10;1.20;;;;;;;;;;5013652;28;20050;-65
2022/10/14 14:58:22;;;;;;;3.25;2.72;;;;;;;;;;5014083;28;20054;-67
2022/10/14 15:00:50;;;;;;;3.05;1.70;;;;;;;;;;5013368;28;20077;-65
2022/10/14 15:03:17;;;;;;;2.40;1.58;;;;;;;;;;5013571;28;20064;-66
2022/10/14 15:06:13;;;;;;;2.47;1.30;;;;;;;;;;5013455;28;20512;-66